sensor_id;sensor_type;location;lat;lon;timestamp;temperature;humidity
20125;DHT22;10223;50.862;4.360;2022-12-07T00:00:14;6.00;99.90
20125;DHT22;10223;50.862;4.360;2022-12-07T00:02:41;6.00;99.90
20125;DHT22;10223;50.862;4.360;2022-12-07T00:05:08;6.00;99.90
20125;DHT22;10223;50.862;4.360;2022-12-07T00:07:35;5.90;99.90
20125;DHT22;10223;50.862;4.360;2022-12-07T00:10:02;5.90;99.90
20125;DHT22;10223;50.862;4.360;2022-12-07T00:12:31;5.80;99.90
20125;DHT22;10223;50.862;4.360;2022-12-07T00:14:58;5.80;99.90
20125;DHT22;10223;50.862;4.360;2022-12-07T00:17:25;5.80;99.90
20125;DHT22;10223;50.862;4.360;2022-12-07T00:19:52;5.60;99.90
20125;DHT22;10223;50.862;4.360;2022-12-07T00:22:18;5.60;99.90
20125;DHT22;10223;50.862;4.360;2022-12-07T00:24:45;5.60;99.90
20125;DHT22;10223;50.862;4.360;2022-12-07T00:27:12;5.70;99.90
20125;DHT22;10223;50.862;4.360;2022-12-07T00:29:40;5.60;99.90
20125;DHT22;10223;50.862;4.360;2022-12-07T00:32:07;5.50;99.90
20125;DHT22;10223;50.862;4.360;2022-12-07T00:34:34;5.60;99.90
20125;DHT22;10223;50.862;4.360;2022-12-07T00:37:01;5.70;99.90
20125;DHT22;10223;50.862;4.360;2022-12-07T00:39:28;5.60;99.90
20125;DHT22;10223;50.862;4.360;2022-12-07T00:41:55;5.60;99.90
20125;DHT22;10223;50.862;4.360;2022-12-07T00:44:22;5.50;99.90
20125;DHT22;10223;50.862;4.360;2022-12-07T00:46:50;5.50;99.90
20125;DHT22;10223;50.862;4.360;2022-12-07T00:49:17;5.70;99.90
20125;DHT22;10223;50.862;4.360;2022-12-07T00:51:44;5.50;99.90
20125;DHT22;10223;50.862;4.360;2022-12-07T00:54:11;5.50;99.90
20125;DHT22;10223;50.862;4.360;2022-12-07T00:56:38;5.50;99.90
20125;DHT22;10223;50.862;4.360;2022-12-07T00:59:05;5.40;99.90
20125;DHT22;10223;50.862;4.360;2022-12-07T01:01:33;5.30;99.90
20125;DHT22;10223;50.862;4.360;2022-12-07T01:04:02;5.30;99.90
20125;DHT22;10223;50.862;4.360;2022-12-07T01:06:29;5.10;99.90
20125;DHT22;10223;50.862;4.360;2022-12-07T01:08:57;5.10;99.90
20125;DHT22;10223;50.862;4.360;2022-12-07T01:11:26;5.10;99.90
20125;DHT22;10223;50.862;4.360;2022-12-07T01:13:54;5.20;99.90
20125;DHT22;10223;50.862;4.360;2022-12-07T01:16:24;5.20;99.90
20125;DHT22;10223;50.862;4.360;2022-12-07T01:18:53;5.10;99.90
20125;DHT22;10223;50.862;4.360;2022-12-07T01:21:23;5.20;99.90
20125;DHT22;10223;50.862;4.360;2022-12-07T01:23:50;5.20;99.90
20125;DHT22;10223;50.862;4.360;2022-12-07T01:26:19;5.00;99.90
20125;DHT22;10223;50.862;4.360;2022-12-07T01:28:47;5.30;99.90
20125;DHT22;10223;50.862;4.360;2022-12-07T01:31:15;5.30;99.90
20125;DHT22;10223;50.862;4.360;2022-12-07T01:33:44;5.20;99.90
20125;DHT22;10223;50.862;4.360;2022-12-07T01:36:14;5.20;99.90
20125;DHT22;10223;50.862;4.360;2022-12-07T01:38:43;5.20;99.90
20125;DHT22;10223;50.862;4.360;2022-12-07T01:41:11;5.20;99.90
20125;DHT22;10223;50.862;4.360;2022-12-07T01:44:12;5.10;99.90
20125;DHT22;10223;50.862;4.360;2022-12-07T01:46:40;5.00;99.90
20125;DHT22;10223;50.862;4.360;2022-12-07T01:49:10;5.00;99.90
20125;DHT22;10223;50.862;4.360;2022-12-07T01:51:40;5.00;99.90
20125;DHT22;10223;50.862;4.360;2022-12-07T01:54:11;5.00;99.90
20125;DHT22;10223;50.862;4.360;2022-12-07T01:56:40;5.20;99.90
20125;DHT22;10223;50.862;4.360;2022-12-07T01:59:09;5.30;99.90
20125;DHT22;10223;50.862;4.360;2022-12-07T02:01:36;5.30;99.90
20125;DHT22;10223;50.862;4.360;2022-12-07T02:04:03;5.50;99.90
20125;DHT22;10223;50.862;4.360;2022-12-07T02:06:31;5.50;99.90
20125;DHT22;10223;50.862;4.360;2022-12-07T02:08:57;5.50;99.90
20125;DHT22;10223;50.862;4.360;2022-12-07T02:11:26;5.40;99.90
20125;DHT22;10223;50.862;4.360;2022-12-07T02:13:53;5.20;99.90
20125;DHT22;10223;50.862;4.360;2022-12-07T02:16:26;5.10;99.90
20125;DHT22;10223;50.862;4.360;2022-12-07T02:19:03;5.10;99.90
20125;DHT22;10223;50.862;4.360;2022-12-07T02:21:38;5.00;99.90
20125;DHT22;10223;50.862;4.360;2022-12-07T02:24:15;4.90;99.90
20125;DHT22;10223;50.862;4.360;2022-12-07T02:27:01;4.90;99.90
20125;DHT22;10223;50.862;4.360;2022-12-07T02:29:35;5.00;99.90
20125;DHT22;10223;50.862;4.360;2022-12-07T02:32:11;5.00;99.90
20125;DHT22;10223;50.862;4.360;2022-12-07T02:34:45;5.00;99.90
20125;DHT22;10223;50.862;4.360;2022-12-07T02:37:21;5.10;99.90
20125;DHT22;10223;50.862;4.360;2022-12-07T02:39:54;5.10;99.90
20125;DHT22;10223;50.862;4.360;2022-12-07T02:42:26;4.70;99.90
20125;DHT22;10223;50.862;4.360;2022-12-07T02:44:57;4.70;99.90
20125;DHT22;10223;50.862;4.360;2022-12-07T02:47:26;4.80;99.90
20125;DHT22;10223;50.862;4.360;2022-12-07T02:49:55;4.90;99.90
20125;DHT22;10223;50.862;4.360;2022-12-07T02:52:22;4.90;99.90
20125;DHT22;10223;50.862;4.360;2022-12-07T02:54:49;4.90;99.90
20125;DHT22;10223;50.862;4.360;2022-12-07T02:57:35;5.00;99.90
20125;DHT22;10223;50.862;4.360;2022-12-07T03:00:08;5.00;99.90
20125;DHT22;10223;50.862;4.360;2022-12-07T03:02:55;4.80;99.90
20125;DHT22;10223;50.862;4.360;2022-12-07T03:05:46;4.80;99.90
20125;DHT22;10223;50.862;4.360;2022-12-07T03:08:25;4.80;99.90
20125;DHT22;10223;50.862;4.360;2022-12-07T03:10:56;5.00;99.90
20125;DHT22;10223;50.862;4.360;2022-12-07T03:13:30;5.00;99.90
20125;DHT22;10223;50.862;4.360;2022-12-07T03:16:02;5.10;99.90
20125;DHT22;10223;50.862;4.360;2022-12-07T03:18:35;5.00;99.90
20125;DHT22;10223;50.862;4.360;2022-12-07T03:21:07;5.10;99.90
20125;DHT22;10223;50.862;4.360;2022-12-07T03:23:37;5.10;99.90
20125;DHT22;10223;50.862;4.360;2022-12-07T03:26:06;5.10;99.90
20125;DHT22;10223;50.862;4.360;2022-12-07T03:28:39;5.20;99.90
20125;DHT22;10223;50.862;4.360;2022-12-07T03:31:12;5.20;99.90
20125;DHT22;10223;50.862;4.360;2022-12-07T03:33:46;5.20;99.90
20125;DHT22;10223;50.862;4.360;2022-12-07T03:36:19;5.20;99.90
20125;DHT22;10223;50.862;4.360;2022-12-07T03:38:49;5.00;99.90
20125;DHT22;10223;50.862;4.360;2022-12-07T03:41:21;5.00;99.90
20125;DHT22;10223;50.862;4.360;2022-12-07T03:43:49;5.00;99.90
20125;DHT22;10223;50.862;4.360;2022-12-07T03:46:22;4.90;99.90
20125;DHT22;10223;50.862;4.360;2022-12-07T03:48:59;4.80;99.90
20125;DHT22;10223;50.862;4.360;2022-12-07T03:51:33;4.80;99.90
20125;DHT22;10223;50.862;4.360;2022-12-07T03:54:11;4.80;99.90
20125;DHT22;10223;50.862;4.360;2022-12-07T03:56:40;4.70;99.90
20125;DHT22;10223;50.862;4.360;2022-12-07T03:59:09;4.60;99.90
20125;DHT22;10223;50.862;4.360;2022-12-07T04:01:37;4.60;99.90
20125;DHT22;10223;50.862;4.360;2022-12-07T04:04:04;4.60;99.90
20125;DHT22;10223;50.862;4.360;2022-12-07T04:06:31;4.60;99.90
20125;DHT22;10223;50.862;4.360;2022-12-07T04:08:58;4.50;99.90
20125;DHT22;10223;50.862;4.360;2022-12-07T04:11:25;4.60;99.90
20125;DHT22;10223;50.862;4.360;2022-12-07T04:13:52;4.50;99.90
20125;DHT22;10223;50.862;4.360;2022-12-07T04:16:37;4.50;99.90
20125;DHT22;10223;50.862;4.360;2022-12-07T04:19:04;4.60;99.90
20125;DHT22;10223;50.862;4.360;2022-12-07T04:21:31;4.40;99.90
20125;DHT22;10223;50.862;4.360;2022-12-07T04:23:58;4.50;99.90
20125;DHT22;10223;50.862;4.360;2022-12-07T04:26:25;4.50;99.90
20125;DHT22;10223;50.862;4.360;2022-12-07T04:28:52;4.40;99.90
20125;DHT22;10223;50.862;4.360;2022-12-07T04:31:19;4.40;99.90
20125;DHT22;10223;50.862;4.360;2022-12-07T04:33:47;4.40;99.90
20125;DHT22;10223;50.862;4.360;2022-12-07T04:36:14;4.40;99.90
20125;DHT22;10223;50.862;4.360;2022-12-07T04:38:41;4.40;99.90
20125;DHT22;10223;50.862;4.360;2022-12-07T04:41:09;4.40;99.90
20125;DHT22;10223;50.862;4.360;2022-12-07T04:43:36;4.40;99.90
20125;DHT22;10223;50.862;4.360;2022-12-07T04:46:03;4.40;99.90
20125;DHT22;10223;50.862;4.360;2022-12-07T04:48:30;4.40;99.90
20125;DHT22;10223;50.862;4.360;2022-12-07T04:50:58;4.50;99.90
20125;DHT22;10223;50.862;4.360;2022-12-07T04:53:25;4.50;99.90
20125;DHT22;10223;50.862;4.360;2022-12-07T04:55:52;4.50;99.90
20125;DHT22;10223;50.862;4.360;2022-12-07T04:58:19;4.50;99.90
20125;DHT22;10223;50.862;4.360;2022-12-07T05:00:45;4.50;99.90
20125;DHT22;10223;50.862;4.360;2022-12-07T05:03:12;4.60;99.90
20125;DHT22;10223;50.862;4.360;2022-12-07T05:05:40;4.40;99.90
20125;DHT22;10223;50.862;4.360;2022-12-07T05:08:08;4.40;99.90
20125;DHT22;10223;50.862;4.360;2022-12-07T05:10:35;4.50;99.90
20125;DHT22;10223;50.862;4.360;2022-12-07T05:13:02;4.40;99.90
20125;DHT22;10223;50.862;4.360;2022-12-07T05:15:29;4.40;99.90
20125;DHT22;10223;50.862;4.360;2022-12-07T05:17:56;4.40;99.90
20125;DHT22;10223;50.862;4.360;2022-12-07T05:20:23;4.50;99.90
20125;DHT22;10223;50.862;4.360;2022-12-07T05:22:50;4.50;99.90
20125;DHT22;10223;50.862;4.360;2022-12-07T05:25:18;4.50;99.90
20125;DHT22;10223;50.862;4.360;2022-12-07T05:27:45;4.40;99.90
20125;DHT22;10223;50.862;4.360;2022-12-07T05:30:13;4.40;99.90
20125;DHT22;10223;50.862;4.360;2022-12-07T05:32:40;4.30;99.90
20125;DHT22;10223;50.862;4.360;2022-12-07T05:35:07;4.20;99.90
20125;DHT22;10223;50.862;4.360;2022-12-07T05:37:34;4.20;99.90
20125;DHT22;10223;50.862;4.360;2022-12-07T05:40:01;4.30;99.90
20125;DHT22;10223;50.862;4.360;2022-12-07T05:42:29;4.20;99.90
20125;DHT22;10223;50.862;4.360;2022-12-07T05:44:55;4.30;99.90
20125;DHT22;10223;50.862;4.360;2022-12-07T05:47:22;4.30;99.90
20125;DHT22;10223;50.862;4.360;2022-12-07T05:49:49;4.20;99.90
20125;DHT22;10223;50.862;4.360;2022-12-07T05:52:16;4.30;99.90
20125;DHT22;10223;50.862;4.360;2022-12-07T05:54:43;4.30;99.90
20125;DHT22;10223;50.862;4.360;2022-12-07T05:57:10;4.30;99.90
20125;DHT22;10223;50.862;4.360;2022-12-07T05:59:38;4.40;99.90
20125;DHT22;10223;50.862;4.360;2022-12-07T06:02:06;4.50;99.90
20125;DHT22;10223;50.862;4.360;2022-12-07T06:04:35;4.70;99.90
20125;DHT22;10223;50.862;4.360;2022-12-07T06:07:02;4.60;99.90
20125;DHT22;10223;50.862;4.360;2022-12-07T06:09:30;4.70;99.90
20125;DHT22;10223;50.862;4.360;2022-12-07T06:11:57;4.80;99.90
20125;DHT22;10223;50.862;4.360;2022-12-07T06:14:46;4.90;99.90
20125;DHT22;10223;50.862;4.360;2022-12-07T06:17:14;5.00;99.90
20125;DHT22;10223;50.862;4.360;2022-12-07T06:19:41;5.00;99.90
20125;DHT22;10223;50.862;4.360;2022-12-07T06:22:09;5.10;99.90
20125;DHT22;10223;50.862;4.360;2022-12-07T06:24:37;5.10;99.90
20125;DHT22;10223;50.862;4.360;2022-12-07T06:27:04;4.90;99.90
20125;DHT22;10223;50.862;4.360;2022-12-07T06:29:31;4.80;99.90
20125;DHT22;10223;50.862;4.360;2022-12-07T06:32:00;4.70;99.90
20125;DHT22;10223;50.862;4.360;2022-12-07T06:34:27;4.60;99.90
20125;DHT22;10223;50.862;4.360;2022-12-07T06:36:54;4.70;99.90
20125;DHT22;10223;50.862;4.360;2022-12-07T06:39:23;4.70;99.90
20125;DHT22;10223;50.862;4.360;2022-12-07T06:41:50;4.60;99.90
20125;DHT22;10223;50.862;4.360;2022-12-07T06:44:18;4.60;99.90
20125;DHT22;10223;50.862;4.360;2022-12-07T06:46:45;4.70;99.90
20125;DHT22;10223;50.862;4.360;2022-12-07T06:49:13;4.70;99.90
20125;DHT22;10223;50.862;4.360;2022-12-07T06:51:40;4.70;99.90
20125;DHT22;10223;50.862;4.360;2022-12-07T06:54:08;4.60;99.90
20125;DHT22;10223;50.862;4.360;2022-12-07T06:56:35;4.70;99.90
20125;DHT22;10223;50.862;4.360;2022-12-07T06:59:02;4.70;99.90
20125;DHT22;10223;50.862;4.360;2022-12-07T07:01:29;4.70;99.90
20125;DHT22;10223;50.862;4.360;2022-12-07T07:03:56;4.80;99.90
20125;DHT22;10223;50.862;4.360;2022-12-07T07:06:24;4.70;99.90
20125;DHT22;10223;50.862;4.360;2022-12-07T07:08:51;4.80;99.90
20125;DHT22;10223;50.862;4.360;2022-12-07T07:11:18;4.90;99.90
20125;DHT22;10223;50.862;4.360;2022-12-07T07:13:45;5.10;99.90
20125;DHT22;10223;50.862;4.360;2022-12-07T07:16:12;4.90;99.90
20125;DHT22;10223;50.862;4.360;2022-12-07T07:18:39;5.00;99.90
20125;DHT22;10223;50.862;4.360;2022-12-07T07:21:06;5.00;99.90
20125;DHT22;10223;50.862;4.360;2022-12-07T07:23:34;4.90;99.90
20125;DHT22;10223;50.862;4.360;2022-12-07T07:26:02;4.90;99.90
20125;DHT22;10223;50.862;4.360;2022-12-07T07:28:29;4.90;99.90
20125;DHT22;10223;50.862;4.360;2022-12-07T07:30:55;4.90;99.90
20125;DHT22;10223;50.862;4.360;2022-12-07T07:33:22;4.80;99.90
20125;DHT22;10223;50.862;4.360;2022-12-07T07:35:49;4.80;99.90
20125;DHT22;10223;50.862;4.360;2022-12-07T07:38:16;4.60;99.90
20125;DHT22;10223;50.862;4.360;2022-12-07T07:40:45;4.60;99.90
20125;DHT22;10223;50.862;4.360;2022-12-07T07:43:11;4.60;99.90
20125;DHT22;10223;50.862;4.360;2022-12-07T07:45:38;4.60;99.90
20125;DHT22;10223;50.862;4.360;2022-12-07T07:48:06;4.70;99.90
20125;DHT22;10223;50.862;4.360;2022-12-07T07:50:33;4.60;99.90
20125;DHT22;10223;50.862;4.360;2022-12-07T07:53:00;4.70;99.90
20125;DHT22;10223;50.862;4.360;2022-12-07T07:55:27;4.60;99.90
20125;DHT22;10223;50.862;4.360;2022-12-07T07:57:55;4.70;99.90
20125;DHT22;10223;50.862;4.360;2022-12-07T08:00:22;4.80;99.90
20125;DHT22;10223;50.862;4.360;2022-12-07T08:02:49;4.90;99.90
20125;DHT22;10223;50.862;4.360;2022-12-07T08:05:17;4.80;99.90
20125;DHT22;10223;50.862;4.360;2022-12-07T08:07:44;4.80;99.90
20125;DHT22;10223;50.862;4.360;2022-12-07T08:10:12;4.90;99.90
20125;DHT22;10223;50.862;4.360;2022-12-07T08:12:40;4.90;99.90
20125;DHT22;10223;50.862;4.360;2022-12-07T08:15:24;4.90;99.90
20125;DHT22;10223;50.862;4.360;2022-12-07T08:17:50;4.90;99.90
20125;DHT22;10223;50.862;4.360;2022-12-07T08:20:17;4.90;99.90
20125;DHT22;10223;50.862;4.360;2022-12-07T08:22:44;4.90;99.90
20125;DHT22;10223;50.862;4.360;2022-12-07T08:25:11;5.10;99.90
20125;DHT22;10223;50.862;4.360;2022-12-07T08:27:38;5.20;99.90
20125;DHT22;10223;50.862;4.360;2022-12-07T08:30:06;5.30;99.90
20125;DHT22;10223;50.862;4.360;2022-12-07T08:32:35;5.40;99.90
20125;DHT22;10223;50.862;4.360;2022-12-07T08:35:02;5.40;99.90
20125;DHT22;10223;50.862;4.360;2022-12-07T08:37:29;5.50;99.90
20125;DHT22;10223;50.862;4.360;2022-12-07T08:39:55;5.50;99.90
20125;DHT22;10223;50.862;4.360;2022-12-07T08:42:22;5.50;99.90
20125;DHT22;10223;50.862;4.360;2022-12-07T08:44:53;5.50;99.90
20125;DHT22;10223;50.862;4.360;2022-12-07T08:47:20;5.70;99.90
20125;DHT22;10223;50.862;4.360;2022-12-07T08:49:50;5.70;99.90
20125;DHT22;10223;50.862;4.360;2022-12-07T08:52:18;5.90;99.90
20125;DHT22;10223;50.862;4.360;2022-12-07T08:54:45;5.70;99.90
20125;DHT22;10223;50.862;4.360;2022-12-07T08:57:12;5.70;99.90
20125;DHT22;10223;50.862;4.360;2022-12-07T08:59:39;5.70;99.90
20125;DHT22;10223;50.862;4.360;2022-12-07T09:02:06;5.60;99.90
20125;DHT22;10223;50.862;4.360;2022-12-07T09:04:33;5.50;99.90
20125;DHT22;10223;50.862;4.360;2022-12-07T09:07:01;5.40;99.90
20125;DHT22;10223;50.862;4.360;2022-12-07T09:09:29;5.50;99.90
20125;DHT22;10223;50.862;4.360;2022-12-07T09:11:56;5.50;99.90
20125;DHT22;10223;50.862;4.360;2022-12-07T09:14:23;5.40;99.90
20125;DHT22;10223;50.862;4.360;2022-12-07T09:16:50;5.50;99.90
20125;DHT22;10223;50.862;4.360;2022-12-07T09:19:17;5.50;99.90
20125;DHT22;10223;50.862;4.360;2022-12-07T09:21:44;5.40;99.90
20125;DHT22;10223;50.862;4.360;2022-12-07T09:24:13;5.50;99.90
20125;DHT22;10223;50.862;4.360;2022-12-07T09:26:40;5.70;99.90
20125;DHT22;10223;50.862;4.360;2022-12-07T09:29:07;5.80;99.90
20125;DHT22;10223;50.862;4.360;2022-12-07T09:31:36;5.70;99.90
20125;DHT22;10223;50.862;4.360;2022-12-07T09:34:03;5.70;99.90
20125;DHT22;10223;50.862;4.360;2022-12-07T09:36:30;5.60;99.90
20125;DHT22;10223;50.862;4.360;2022-12-07T09:38:57;5.70;99.90
20125;DHT22;10223;50.862;4.360;2022-12-07T09:41:27;5.80;99.90
20125;DHT22;10223;50.862;4.360;2022-12-07T09:44:00;5.90;99.90
20125;DHT22;10223;50.862;4.360;2022-12-07T09:46:31;6.20;99.90
20125;DHT22;10223;50.862;4.360;2022-12-07T09:49:01;6.20;99.90
20125;DHT22;10223;50.862;4.360;2022-12-07T09:51:28;6.00;99.90
20125;DHT22;10223;50.862;4.360;2022-12-07T09:53:56;6.00;99.90
20125;DHT22;10223;50.862;4.360;2022-12-07T09:56:25;6.00;99.90
20125;DHT22;10223;50.862;4.360;2022-12-07T09:58:59;6.00;99.90
20125;DHT22;10223;50.862;4.360;2022-12-07T10:01:29;6.00;99.90
20125;DHT22;10223;50.862;4.360;2022-12-07T10:04:02;6.00;99.90
20125;DHT22;10223;50.862;4.360;2022-12-07T10:06:33;6.10;99.90
20125;DHT22;10223;50.862;4.360;2022-12-07T10:09:00;6.20;99.90
20125;DHT22;10223;50.862;4.360;2022-12-07T10:11:29;6.30;99.90
20125;DHT22;10223;50.862;4.360;2022-12-07T10:14:10;6.40;99.90
20125;DHT22;10223;50.862;4.360;2022-12-07T10:16:39;6.50;99.90
20125;DHT22;10223;50.862;4.360;2022-12-07T10:19:20;6.60;99.90
20125;DHT22;10223;50.862;4.360;2022-12-07T10:22:01;6.60;99.90
20125;DHT22;10223;50.862;4.360;2022-12-07T10:24:28;6.60;99.90
20125;DHT22;10223;50.862;4.360;2022-12-07T10:26:57;6.60;99.90
20125;DHT22;10223;50.862;4.360;2022-12-07T10:29:28;6.60;99.90
20125;DHT22;10223;50.862;4.360;2022-12-07T10:31:59;6.80;99.90
20125;DHT22;10223;50.862;4.360;2022-12-07T10:34:28;6.80;99.90
20125;DHT22;10223;50.862;4.360;2022-12-07T10:37:14;6.60;99.90
20125;DHT22;10223;50.862;4.360;2022-12-07T10:39:43;6.90;99.90
20125;DHT22;10223;50.862;4.360;2022-12-07T10:42:18;7.00;99.90
20125;DHT22;10223;50.862;4.360;2022-12-07T10:44:46;7.00;99.90
20125;DHT22;10223;50.862;4.360;2022-12-07T10:47:31;6.90;99.90
20125;DHT22;10223;50.862;4.360;2022-12-07T10:53:12;6.80;99.90
20125;DHT22;10223;50.862;4.360;2022-12-07T10:55:52;6.60;99.90
20125;DHT22;10223;50.862;4.360;2022-12-07T10:58:43;6.50;99.90
20125;DHT22;10223;50.862;4.360;2022-12-07T11:01:23;6.70;99.90
20125;DHT22;10223;50.862;4.360;2022-12-07T11:04:03;6.80;99.90
20125;DHT22;10223;50.862;4.360;2022-12-07T11:06:36;7.00;99.90
20125;DHT22;10223;50.862;4.360;2022-12-07T11:09:24;7.00;99.90
20125;DHT22;10223;50.862;4.360;2022-12-07T11:11:59;6.90;99.90
20125;DHT22;10223;50.862;4.360;2022-12-07T11:14:36;7.10;99.90
20125;DHT22;10223;50.862;4.360;2022-12-07T11:17:12;7.10;99.90
20125;DHT22;10223;50.862;4.360;2022-12-07T11:19:53;7.30;99.90
20125;DHT22;10223;50.862;4.360;2022-12-07T11:22:36;7.40;99.90
20125;DHT22;10223;50.862;4.360;2022-12-07T11:25:19;7.40;99.90
20125;DHT22;10223;50.862;4.360;2022-12-07T11:28:00;7.60;99.90
20125;DHT22;10223;50.862;4.360;2022-12-07T11:30:34;7.70;99.90
20125;DHT22;10223;50.862;4.360;2022-12-07T11:33:12;7.70;99.90
20125;DHT22;10223;50.862;4.360;2022-12-07T11:35:53;7.70;99.90
20125;DHT22;10223;50.862;4.360;2022-12-07T11:38:31;7.70;99.90
20125;DHT22;10223;50.862;4.360;2022-12-07T11:41:02;7.70;99.90
20125;DHT22;10223;50.862;4.360;2022-12-07T11:43:49;7.80;99.90
20125;DHT22;10223;50.862;4.360;2022-12-07T11:46:20;8.10;99.90
20125;DHT22;10223;50.862;4.360;2022-12-07T11:48:54;8.40;99.90
20125;DHT22;10223;50.862;4.360;2022-12-07T11:51:28;8.70;99.90
20125;DHT22;10223;50.862;4.360;2022-12-07T11:54:01;8.90;99.90
20125;DHT22;10223;50.862;4.360;2022-12-07T11:56:30;9.10;99.90
20125;DHT22;10223;50.862;4.360;2022-12-07T11:59:07;9.50;99.90
20125;DHT22;10223;50.862;4.360;2022-12-07T12:01:45;9.90;99.90
20125;DHT22;10223;50.862;4.360;2022-12-07T12:04:27;10.10;99.90
20125;DHT22;10223;50.862;4.360;2022-12-07T12:06:55;10.40;99.90
20125;DHT22;10223;50.862;4.360;2022-12-07T12:09:26;10.40;99.90
20125;DHT22;10223;50.862;4.360;2022-12-07T12:12:22;10.20;99.90
20125;DHT22;10223;50.862;4.360;2022-12-07T12:15:04;9.90;99.90
20125;DHT22;10223;50.862;4.360;2022-12-07T12:18:04;9.80;99.90
20125;DHT22;10223;50.862;4.360;2022-12-07T12:20:36;9.80;99.90
20125;DHT22;10223;50.862;4.360;2022-12-07T12:23:09;9.50;99.90
20125;DHT22;10223;50.862;4.360;2022-12-07T12:25:41;9.10;99.90
20125;DHT22;10223;50.862;4.360;2022-12-07T12:28:20;8.90;99.90
20125;DHT22;10223;50.862;4.360;2022-12-07T12:31:04;8.70;99.90
20125;DHT22;10223;50.862;4.360;2022-12-07T12:33:33;8.70;99.90
20125;DHT22;10223;50.862;4.360;2022-12-07T12:36:44;8.70;99.90
20125;DHT22;10223;50.862;4.360;2022-12-07T12:39:12;8.80;99.90
20125;DHT22;10223;50.862;4.360;2022-12-07T12:41:57;9.20;99.90
20125;DHT22;10223;50.862;4.360;2022-12-07T12:47:42;9.30;99.90
20125;DHT22;10223;50.862;4.360;2022-12-07T12:50:19;9.40;99.90
20125;DHT22;10223;50.862;4.360;2022-12-07T12:53:00;9.50;99.90
20125;DHT22;10223;50.862;4.360;2022-12-07T12:55:49;9.50;99.90
20125;DHT22;10223;50.862;4.360;2022-12-07T12:58:43;9.40;99.90
20125;DHT22;10223;50.862;4.360;2022-12-07T13:01:44;9.50;99.90
20125;DHT22;10223;50.862;4.360;2022-12-07T13:04:48;9.70;99.90
20125;DHT22;10223;50.862;4.360;2022-12-07T13:07:54;9.70;99.90
20125;DHT22;10223;50.862;4.360;2022-12-07T13:13:29;9.50;99.90
20125;DHT22;10223;50.862;4.360;2022-12-07T13:22:46;9.30;99.90
20125;DHT22;10223;50.862;4.360;2022-12-07T13:25:31;9.50;99.90
20125;DHT22;10223;50.862;4.360;2022-12-07T13:28:07;9.40;99.90
20125;DHT22;10223;50.862;4.360;2022-12-07T13:30:43;9.40;99.90
20125;DHT22;10223;50.862;4.360;2022-12-07T13:33:12;9.50;99.90
20125;DHT22;10223;50.862;4.360;2022-12-07T13:35:40;9.40;99.90
20125;DHT22;10223;50.862;4.360;2022-12-07T13:38:21;9.50;99.90
20125;DHT22;10223;50.862;4.360;2022-12-07T13:41:05;9.40;99.90
20125;DHT22;10223;50.862;4.360;2022-12-07T13:43:48;9.30;99.90
20125;DHT22;10223;50.862;4.360;2022-12-07T13:46:22;9.30;99.90
20125;DHT22;10223;50.862;4.360;2022-12-07T13:48:51;9.10;99.90
20125;DHT22;10223;50.862;4.360;2022-12-07T13:51:22;8.80;99.90
20125;DHT22;10223;50.862;4.360;2022-12-07T13:53:51;8.60;99.90
20125;DHT22;10223;50.862;4.360;2022-12-07T13:56:22;8.70;99.90
20125;DHT22;10223;50.862;4.360;2022-12-07T13:58:50;8.70;99.90
20125;DHT22;10223;50.862;4.360;2022-12-07T14:01:17;8.80;99.90
20125;DHT22;10223;50.862;4.360;2022-12-07T14:03:45;8.80;99.90
20125;DHT22;10223;50.862;4.360;2022-12-07T14:06:24;8.70;99.90
20125;DHT22;10223;50.862;4.360;2022-12-07T14:09:16;8.60;99.90
20125;DHT22;10223;50.862;4.360;2022-12-07T14:11:48;8.40;99.90
20125;DHT22;10223;50.862;4.360;2022-12-07T14:14:19;8.30;99.90
20125;DHT22;10223;50.862;4.360;2022-12-07T14:16:59;8.20;99.90
20125;DHT22;10223;50.862;4.360;2022-12-07T14:19:46;8.10;99.90
20125;DHT22;10223;50.862;4.360;2022-12-07T14:22:32;8.00;99.90
20125;DHT22;10223;50.862;4.360;2022-12-07T14:25:18;7.90;99.90
20125;DHT22;10223;50.862;4.360;2022-12-07T14:27:55;7.80;99.90
20125;DHT22;10223;50.862;4.360;2022-12-07T14:30:25;7.80;99.90
20125;DHT22;10223;50.862;4.360;2022-12-07T14:32:54;7.70;99.90
20125;DHT22;10223;50.862;4.360;2022-12-07T14:35:22;7.60;99.90
20125;DHT22;10223;50.862;4.360;2022-12-07T14:37:50;7.70;99.90
20125;DHT22;10223;50.862;4.360;2022-12-07T14:40:19;7.60;99.90
20125;DHT22;10223;50.862;4.360;2022-12-07T14:42:49;7.60;99.90
20125;DHT22;10223;50.862;4.360;2022-12-07T14:45:19;7.60;99.90
20125;DHT22;10223;50.862;4.360;2022-12-07T14:47:47;7.50;99.90
20125;DHT22;10223;50.862;4.360;2022-12-07T14:50:15;7.40;99.90
20125;DHT22;10223;50.862;4.360;2022-12-07T14:52:45;7.50;99.90
20125;DHT22;10223;50.862;4.360;2022-12-07T14:55:16;7.40;99.90
20125;DHT22;10223;50.862;4.360;2022-12-07T14:57:44;7.40;99.90
20125;DHT22;10223;50.862;4.360;2022-12-07T15:00:14;7.60;99.90
20125;DHT22;10223;50.862;4.360;2022-12-07T15:02:44;7.70;99.90
20125;DHT22;10223;50.862;4.360;2022-12-07T15:05:11;7.60;99.90
20125;DHT22;10223;50.862;4.360;2022-12-07T15:07:39;7.60;99.90
20125;DHT22;10223;50.862;4.360;2022-12-07T15:10:09;7.60;99.90
20125;DHT22;10223;50.862;4.360;2022-12-07T15:12:37;7.60;99.90
20125;DHT22;10223;50.862;4.360;2022-12-07T15:15:04;7.60;99.90
20125;DHT22;10223;50.862;4.360;2022-12-07T15:17:31;7.60;99.90
20125;DHT22;10223;50.862;4.360;2022-12-07T15:20:00;7.80;99.90
20125;DHT22;10223;50.862;4.360;2022-12-07T15:22:27;7.60;99.90
20125;DHT22;10223;50.862;4.360;2022-12-07T15:24:55;7.60;99.90
20125;DHT22;10223;50.862;4.360;2022-12-07T15:27:22;7.50;99.90
20125;DHT22;10223;50.862;4.360;2022-12-07T15:29:49;7.60;99.90
20125;DHT22;10223;50.862;4.360;2022-12-07T15:32:16;7.50;99.90
20125;DHT22;10223;50.862;4.360;2022-12-07T15:34:43;7.60;99.90
20125;DHT22;10223;50.862;4.360;2022-12-07T15:37:11;7.60;99.90
20125;DHT22;10223;50.862;4.360;2022-12-07T15:39:38;7.50;99.90
20125;DHT22;10223;50.862;4.360;2022-12-07T15:42:05;7.40;99.90
20125;DHT22;10223;50.862;4.360;2022-12-07T15:44:32;7.40;99.90
20125;DHT22;10223;50.862;4.360;2022-12-07T15:47:16;7.60;99.90
20125;DHT22;10223;50.862;4.360;2022-12-07T15:49:43;7.50;99.90
20125;DHT22;10223;50.862;4.360;2022-12-07T15:52:11;7.40;99.90
20125;DHT22;10223;50.862;4.360;2022-12-07T15:54:40;7.40;99.90
20125;DHT22;10223;50.862;4.360;2022-12-07T15:57:07;7.40;99.90
20125;DHT22;10223;50.862;4.360;2022-12-07T15:59:34;7.30;99.90
20125;DHT22;10223;50.862;4.360;2022-12-07T16:02:01;7.40;99.90
20125;DHT22;10223;50.862;4.360;2022-12-07T16:04:28;7.30;99.90
20125;DHT22;10223;50.862;4.360;2022-12-07T16:06:55;7.30;99.90
20125;DHT22;10223;50.862;4.360;2022-12-07T16:09:24;7.20;99.90
20125;DHT22;10223;50.862;4.360;2022-12-07T16:11:52;7.20;99.90
20125;DHT22;10223;50.862;4.360;2022-12-07T16:14:19;7.30;99.90
20125;DHT22;10223;50.862;4.360;2022-12-07T16:16:47;7.40;99.90
20125;DHT22;10223;50.862;4.360;2022-12-07T16:19:14;7.10;99.90
20125;DHT22;10223;50.862;4.360;2022-12-07T16:21:41;7.10;99.90
20125;DHT22;10223;50.862;4.360;2022-12-07T16:24:08;7.00;99.90